Time;durP1;ratioP1;P1;durP2;ratioP2;P2;SDS_P1;SDS_P2;PMS_P1;PMS_P2;Temp;Humidity;BMP_temperature;BMP_pressure;BME280_temperature;BME280_humidity;BME280_pressure;Samples;Min_cycle;Max_cycle;Signal;HPM_P1;HPM_P2
2024/01/29 00:00:19;;;;;;;22.60;11.88;;;0.20;99.90;;;;;;5032668;28;20291;-71
2024/01/29 00:03:05;;;;;;;18.35;12.65;;;0.20;99.90;;;;;;5036330;28;20209;-71
2024/01/29 00:05:51;;;;;;;17.08;12.82;;;0.10;99.90;;;;;;5033745;28;20225;-71
2024/01/29 00:08:37;;;;;;;20.73;15.50;;;0.10;99.90;;;;;;5033829;28;20564;-71
2024/01/29 00:11:24;;;;;;;22.45;17.80;;;0.10;99.90;;;;;;5033446;28;20225;-71
2024/01/29 00:14:10;;;;;;;22.83;16.70;;;0.00;99.90;;;;;;5038727;28;20221;-71
2024/01/29 00:16:57;;;;;;;24.00;16.85;;;0.00;99.90;;;;;;5036982;28;20350;-71
2024/01/29 00:19:43;;;;;;;18.17;13.43;;;0.10;99.90;;;;;;5041906;28;20197;-71
2024/01/29 00:22:29;;;;;;;30.45;17.08;;;0.10;99.90;;;;;;5040701;28;20201;-72
2024/01/29 00:25:15;;;;;;;21.05;15.75;;;0.10;99.90;;;;;;5035579;28;20313;-71
2024/01/29 00:28:00;;;;;;;22.35;16.23;;;0.10;99.90;;;;;;5033505;28;20329;-69
2024/01/29 00:30:46;;;;;;;18.45;13.50;;;0.20;99.90;;;;;;5034838;28;20344;-71
2024/01/29 00:33:33;;;;;;;18.10;13.27;;;0.10;99.90;;;;;;5034858;28;20202;-70
2024/01/29 00:36:18;;;;;;;20.52;13.80;;;0.10;99.90;;;;;;5046397;28;20302;-71
2024/01/29 00:39:08;;;;;;;20.42;13.38;;;0.00;99.90;;;;;;5034434;28;20692;-70
2024/01/29 00:41:54;;;;;;;17.55;12.98;;;0.00;99.90;;;;;;5037001;28;20729;-71
2024/01/29 00:44:39;;;;;;;18.08;11.93;;;-0.10;99.90;;;;;;5034911;28;20812;-71
2024/01/29 00:47:25;;;;;;;21.30;12.93;;;0.00;99.90;;;;;;5041023;28;20204;-71
2024/01/29 00:50:12;;;;;;;16.63;12.18;;;0.00;99.90;;;;;;5032679;28;20225;-71
2024/01/29 00:52:58;;;;;;;17.98;11.98;;;0.00;99.90;;;;;;5036708;28;20788;-71
2024/01/29 00:55:45;;;;;;;16.50;12.65;;;0.10;99.90;;;;;;5034743;28;20197;-71
2024/01/29 00:58:31;;;;;;;18.48;13.07;;;0.00;99.90;;;;;;5041164;28;20355;-71
2024/01/29 01:01:17;;;;;;;18.55;13.73;;;0.10;99.90;;;;;;5032207;28;20279;-70
2024/01/29 01:04:02;;;;;;;18.27;12.57;;;-0.10;99.90;;;;;;5034484;28;20280;-71
2024/01/29 01:06:49;;;;;;;18.83;14.73;;;-0.10;99.90;;;;;;5034920;28;20201;-72
2024/01/29 01:09:34;;;;;;;14.15;12.45;;;-0.10;99.90;;;;;;5036260;28;20197;-70
2024/01/29 01:12:20;;;;;;;17.58;12.43;;;-0.10;99.90;;;;;;5032150;28;20210;-72
2024/01/29 01:15:07;;;;;;;19.55;13.60;;;-0.20;99.90;;;;;;5031351;28;20261;-71
2024/01/29 01:17:52;;;;;;;18.00;13.38;;;-0.20;99.90;;;;;;5032344;28;20762;-72
2024/01/29 01:20:38;;;;;;;17.08;12.65;;;-0.20;99.90;;;;;;5031868;28;20220;-71
2024/01/29 01:23:25;;;;;;;17.15;12.95;;;-0.20;99.90;;;;;;5033799;28;20206;-71
2024/01/29 01:26:11;;;;;;;14.98;11.63;;;-0.20;99.90;;;;;;5034566;28;20229;-69
2024/01/29 01:28:57;;;;;;;17.17;13.13;;;-0.20;99.90;;;;;;5040701;28;20198;-71
2024/01/29 01:31:42;;;;;;;18.35;12.55;;;-0.20;99.90;;;;;;5039452;28;20226;-70
2024/01/29 01:34:28;;;;;;;17.85;13.38;;;-0.20;99.90;;;;;;5039353;28;20236;-69
2024/01/29 01:37:13;;;;;;;14.70;11.57;;;-0.10;99.90;;;;;;5031792;28;20743;-69
2024/01/29 01:40:00;;;;;;;15.50;12.02;;;-0.10;99.90;;;;;;5034648;28;20449;-70
2024/01/29 01:42:47;;;;;;;14.30;10.73;;;-0.10;99.90;;;;;;5036093;28;20205;-69
2024/01/29 01:45:33;;;;;;;13.30;10.35;;;-0.10;99.90;;;;;;5032794;28;20263;-69
2024/01/29 01:48:19;;;;;;;13.75;10.15;;;-0.10;99.90;;;;;;5032850;28;20221;-69
2024/01/29 01:51:05;;;;;;;15.05;10.05;;;-0.20;99.90;;;;;;5031614;28;20229;-70
2024/01/29 01:53:53;;;;;;;20.30;12.75;;;-0.30;99.90;;;;;;5033474;28;20362;-68
2024/01/29 01:56:40;;;;;;;16.58;12.15;;;-0.20;99.90;;;;;;5031496;28;20704;-69
2024/01/29 01:59:27;;;;;;;17.52;11.93;;;-0.30;99.90;;;;;;5037483;28;20596;-69
2024/01/29 02:02:12;;;;;;;16.02;12.15;;;-0.40;99.90;;;;;;5032854;28;20251;-70
2024/01/29 02:04:58;;;;;;;17.63;13.30;;;-0.40;99.90;;;;;;5035828;28;20288;-68
2024/01/29 02:07:43;;;;;;;18.25;13.25;;;-0.40;99.90;;;;;;5032871;28;20287;-68
2024/01/29 02:10:29;;;;;;;18.30;14.32;;;-0.30;99.90;;;;;;5038616;28;20344;-69
2024/01/29 02:13:16;;;;;;;22.40;16.23;;;-0.40;99.90;;;;;;5032640;28;20356;-69
2024/01/29 02:16:02;;;;;;;22.17;14.80;;;-0.40;99.90;;;;;;5037125;28;20212;-69
2024/01/29 02:18:48;;;;;;;17.55;13.98;;;-0.40;99.90;;;;;;5032632;28;20256;-69
2024/01/29 02:21:33;;;;;;;18.08;12.90;;;-0.50;99.90;;;;;;5032329;28;20679;-68
2024/01/29 02:24:20;;;;;;;19.13;12.98;;;-0.50;99.90;;;;;;5041378;28;20275;-69
2024/01/29 02:27:06;;;;;;;20.73;13.05;;;-0.50;99.90;;;;;;5034824;28;20212;-68
2024/01/29 02:29:51;;;;;;;19.13;13.80;;;-0.40;99.90;;;;;;5033363;28;20235;-68
2024/01/29 02:32:37;;;;;;;14.57;12.30;;;-0.30;99.90;;;;;;5041713;28;20193;-69
2024/01/29 02:35:23;;;;;;;18.35;12.10;;;-0.20;99.90;;;;;;5043102;28;20317;-69
2024/01/29 02:38:09;;;;;;;17.95;12.68;;;-0.10;99.90;;;;;;5035768;28;20200;-73
2024/01/29 02:40:56;;;;;;;19.95;13.25;;;-0.20;99.90;;;;;;5043091;28;20201;-68
2024/01/29 02:43:42;;;;;;;15.80;11.80;;;-0.10;99.90;;;;;;5034678;28;20216;-69
2024/01/29 02:46:28;;;;;;;14.70;10.93;;;-0.20;99.90;;;;;;5036407;28;20653;-69
2024/01/29 02:49:13;;;;;;;14.93;11.57;;;-0.30;99.90;;;;;;5041540;28;20280;-68
2024/01/29 02:51:59;;;;;;;18.25;13.00;;;-0.30;99.90;;;;;;5039804;28;20221;-72
2024/01/29 02:54:45;;;;;;;21.77;13.23;;;-0.40;99.90;;;;;;5039764;28;20225;-68
2024/01/29 02:57:32;;;;;;;18.77;13.13;;;-0.40;99.90;;;;;;5035078;28;20308;-68
2024/01/29 03:00:18;;;;;;;21.05;13.85;;;-0.40;99.90;;;;;;5030293;28;20205;-69
2024/01/29 03:03:04;;;;;;;17.95;13.02;;;-0.40;99.90;;;;;;5031330;28;20205;-69
2024/01/29 03:05:50;;;;;;;15.13;12.80;;;-0.40;99.90;;;;;;5032060;28;20342;-69
2024/01/29 03:08:35;;;;;;;23.98;13.88;;;-0.40;99.90;;;;;;5033499;28;20213;-70
2024/01/29 03:11:21;;;;;;;17.48;12.95;;;-0.40;99.90;;;;;;5035288;28;20228;-69
2024/01/29 03:14:08;;;;;;;21.80;13.82;;;-0.40;99.90;;;;;;5030659;28;20224;-68
2024/01/29 03:16:54;;;;;;;18.33;12.18;;;-0.20;99.90;;;;;;5039287;28;20305;-71
2024/01/29 03:19:40;;;;;;;17.95;11.95;;;-0.10;99.90;;;;;;5039956;28;20319;-68
2024/01/29 03:22:25;;;;;;;14.43;11.73;;;-0.10;99.90;;;;;;5038381;28;20207;-69
2024/01/29 03:25:11;;;;;;;18.10;12.63;;;-0.20;99.90;;;;;;5043146;28;20826;-68
2024/01/29 03:27:56;;;;;;;20.35;13.00;;;-0.30;99.90;;;;;;5045097;28;20693;-69
2024/01/29 03:30:44;;;;;;;16.75;12.68;;;-0.30;99.90;;;;;;5031516;28;20212;-69
2024/01/29 03:33:30;;;;;;;17.75;13.63;;;-0.30;99.90;;;;;;5037537;28;20208;-68
2024/01/29 03:36:15;;;;;;;16.65;13.48;;;-0.20;99.90;;;;;;5039221;28;20204;-68
2024/01/29 03:39:01;;;;;;;17.42;12.48;;;-0.30;99.90;;;;;;5047393;28;20278;-68
2024/01/29 03:41:47;;;;;;;21.33;14.68;;;-0.40;99.90;;;;;;5048474;28;20205;-68
2024/01/29 03:44:33;;;;;;;21.50;15.45;;;-0.50;99.90;;;;;;5045676;28;20227;-69
2024/01/29 03:47:20;;;;;;;20.27;14.20;;;-0.40;99.90;;;;;;5041773;28;20668;-68
2024/01/29 03:50:07;;;;;;;16.73;12.35;;;-0.40;99.90;;;;;;5044005;28;20259;-68
2024/01/29 03:52:52;;;;;;;19.55;13.98;;;-0.20;99.90;;;;;;5043086;28;20275;-68
2024/01/29 03:55:38;;;;;;;17.73;13.43;;;-0.20;99.90;;;;;;5046349;28;20216;-69
2024/01/29 03:58:23;;;;;;;17.65;13.80;;;-0.20;99.90;;;;;;5042559;28;20200;-68
2024/01/29 04:01:09;;;;;;;18.75;12.75;;;-0.20;99.90;;;;;;5042453;28;20213;-69
2024/01/29 04:03:56;;;;;;;18.92;13.45;;;-0.10;99.90;;;;;;5043318;28;20282;-69
2024/01/29 04:06:43;;;;;;;19.73;11.52;;;-0.20;99.90;;;;;;5046937;28;20208;-68
2024/01/29 04:09:29;;;;;;;16.13;12.88;;;-0.20;99.90;;;;;;5047690;28;20208;-69
2024/01/29 04:12:15;;;;;;;15.35;12.32;;;-0.20;99.90;;;;;;5038780;28;20222;-70
2024/01/29 04:15:01;;;;;;;16.60;11.98;;;0.00;99.90;;;;;;5042248;28;20233;-69
2024/01/29 04:17:46;;;;;;;19.40;12.55;;;-0.10;99.90;;;;;;5034787;28;20196;-69
2024/01/29 04:20:33;;;;;;;15.50;12.57;;;-0.20;99.90;;;;;;5037975;28;20209;-69
2024/01/29 04:23:19;;;;;;;19.80;14.45;;;-0.20;99.90;;;;;;5035525;28;20213;-69
2024/01/29 04:26:04;;;;;;;17.23;12.95;;;-0.20;99.90;;;;;;5037468;28;20700;-68
2024/01/29 04:28:50;;;;;;;19.33;13.40;;;-0.20;99.90;;;;;;5045281;28;20217;-69
2024/01/29 04:31:36;;;;;;;18.08;12.40;;;-0.20;99.90;;;;;;5042811;28;20700;-69
2024/01/29 04:34:21;;;;;;;16.05;12.13;;;-0.20;99.90;;;;;;5040615;28;20283;-68
2024/01/29 04:37:09;;;;;;;16.75;12.90;;;-0.30;99.90;;;;;;5046188;28;20201;-69
2024/01/29 04:39:54;;;;;;;16.00;12.63;;;-0.20;99.90;;;;;;5034605;28;20300;-69
2024/01/29 04:42:40;;;;;;;18.55;13.88;;;-0.20;99.90;;;;;;5041128;28;20212;-69
2024/01/29 04:45:26;;;;;;;17.88;12.65;;;-0.30;99.90;;;;;;5037998;28;20252;-68
2024/01/29 04:48:11;;;;;;;18.42;12.15;;;-0.30;99.90;;;;;;5040672;28;20249;-69
2024/01/29 04:50:57;;;;;;;18.45;13.40;;;-0.30;99.90;;;;;;5041622;28;20283;-68
2024/01/29 04:53:44;;;;;;;15.10;12.10;;;-0.20;99.90;;;;;;5036055;28;20724;-68
2024/01/29 04:56:29;;;;;;;15.30;11.73;;;-0.30;99.90;;;;;;5045340;28;20252;-68
2024/01/29 04:59:15;;;;;;;17.80;12.55;;;-0.20;99.90;;;;;;5046703;28;20209;-69
2024/01/29 05:02:01;;;;;;;14.48;11.25;;;-0.20;99.90;;;;;;5044383;28;20771;-68
2024/01/29 05:04:46;;;;;;;14.88;11.45;;;-0.30;99.90;;;;;;5039349;28;20759;-70
2024/01/29 05:07:32;;;;;;;16.10;10.65;;;-0.30;99.90;;;;;;5043138;28;20220;-68
2024/01/29 05:10:20;;;;;;;16.42;9.85;;;-0.30;99.90;;;;;;5036187;28;20217;-69
2024/01/29 05:13:05;;;;;;;26.58;12.52;;;-0.30;99.90;;;;;;5044662;28;20636;-69
2024/01/29 05:15:51;;;;;;;17.20;9.85;;;-0.30;99.90;;;;;;5043008;28;20688;-69
2024/01/29 05:18:37;;;;;;;15.32;11.30;;;-0.20;99.90;;;;;;5038151;28;20214;-70
2024/01/29 05:21:23;;;;;;;15.02;10.23;;;-0.20;99.90;;;;;;5046385;28;20692;-70
2024/01/29 05:24:09;;;;;;;13.77;9.95;;;-0.30;99.90;;;;;;5046711;28;20225;-68
2024/01/29 05:26:55;;;;;;;13.65;11.32;;;-0.30;99.90;;;;;;5039976;28;20276;-68
2024/01/29 05:29:41;;;;;;;14.05;10.90;;;-0.40;99.90;;;;;;5039754;28;20212;-71
2024/01/29 05:32:27;;;;;;;14.75;11.00;;;-0.40;99.90;;;;;;5039704;28;20769;-70
2024/01/29 05:35:12;;;;;;;13.25;11.18;;;-0.40;99.90;;;;;;5041487;28;20243;-70
2024/01/29 05:37:58;;;;;;;12.48;10.65;;;-0.40;99.90;;;;;;5032420;28;20436;-69
2024/01/29 05:40:44;;;;;;;14.38;9.90;;;-0.40;99.90;;;;;;5036569;28;20260;-69
2024/01/29 05:43:31;;;;;;;13.90;10.35;;;-0.40;99.90;;;;;;5045692;28;20208;-69
2024/01/29 05:46:17;;;;;;;12.70;10.82;;;-0.40;99.90;;;;;;5035554;28;20209;-69
2024/01/29 05:49:02;;;;;;;12.82;11.27;;;-0.40;99.90;;;;;;5033504;28;20216;-69
2024/01/29 05:51:48;;;;;;;19.25;14.68;;;-0.40;99.90;;;;;;5044672;28;20216;-69
2024/01/29 05:54:34;;;;;;;16.35;12.52;;;-0.40;99.90;;;;;;5042815;28;20219;-69
2024/01/29 05:57:20;;;;;;;14.23;10.70;;;-0.40;99.90;;;;;;5036289;28;20204;-70
2024/01/29 06:00:10;;;;;;;16.13;10.77;;;-0.50;99.90;;;;;;5036586;28;20646;-70
2024/01/29 06:02:55;;;;;;;17.67;12.20;;;-0.50;99.90;;;;;;5043436;28;20212;-69
2024/01/29 06:05:41;;;;;;;17.52;13.68;;;-0.60;99.90;;;;;;5045815;28;20205;-69
2024/01/29 06:08:27;;;;;;;16.38;12.98;;;-0.60;99.90;;;;;;5043089;28;21008;-69
2024/01/29 06:11:12;;;;;;;16.08;12.40;;;-0.60;99.90;;;;;;5035682;28;20219;-68
2024/01/29 06:13:58;;;;;;;18.38;13.60;;;-0.70;99.90;;;;;;5036073;28;20311;-69
2024/01/29 06:16:45;;;;;;;19.60;14.48;;;-0.70;99.90;;;;;;5037898;28;20287;-70
2024/01/29 06:19:31;;;;;;;23.33;12.90;;;-0.60;99.90;;;;;;5036303;28;20623;-69
2024/01/29 06:22:17;;;;;;;19.33;12.57;;;-0.60;99.90;;;;;;5032447;28;20209;-69
2024/01/29 06:25:02;;;;;;;19.23;13.57;;;-0.50;99.90;;;;;;5041670;28;20661;-71
2024/01/29 06:27:48;;;;;;;16.00;12.60;;;-0.40;99.90;;;;;;5039584;28;20567;-68
2024/01/29 06:30:34;;;;;;;16.85;12.20;;;-0.40;99.90;;;;;;5030643;28;20583;-69
2024/01/29 06:33:21;;;;;;;15.25;11.02;;;-0.40;99.90;;;;;;5036872;28;20767;-69
2024/01/29 06:36:07;;;;;;;13.82;9.93;;;-0.40;99.90;;;;;;5030957;28;20228;-70
2024/01/29 06:38:52;;;;;;;14.77;10.50;;;-0.50;99.90;;;;;;5034176;28;20209;-68
2024/01/29 06:41:38;;;;;;;15.52;10.10;;;-0.50;99.90;;;;;;5030344;28;20314;-69
2024/01/29 06:44:24;;;;;;;12.27;9.23;;;-0.50;99.90;;;;;;5030765;28;20240;-68
2024/01/29 06:47:09;;;;;;;13.93;9.75;;;-0.50;99.90;;;;;;5037963;28;20209;-69
2024/01/29 06:49:58;;;;;;;12.10;10.30;;;-0.50;99.90;;;;;;5036014;28;20201;-70
2024/01/29 06:52:44;;;;;;;17.77;10.10;;;-0.60;99.90;;;;;;5044518;28;20225;-70
2024/01/29 06:55:29;;;;;;;10.95;9.52;;;-0.70;99.90;;;;;;5030281;28;20233;-69
2024/01/29 06:58:15;;;;;;;15.13;10.65;;;-0.70;99.90;;;;;;5037122;28;20569;-70
2024/01/29 07:01:01;;;;;;;14.27;10.90;;;-0.70;99.90;;;;;;5037359;28;20237;-70
2024/01/29 07:03:47;;;;;;;15.35;10.88;;;-0.70;99.90;;;;;;5030093;28;20221;-68
2024/01/29 07:06:34;;;;;;;15.15;10.32;;;-0.70;99.90;;;;;;5037275;28;20631;-68
2024/01/29 07:09:19;;;;;;;16.30;10.60;;;-0.60;99.90;;;;;;5046947;28;20353;-69
2024/01/29 07:12:05;;;;;;;13.90;10.63;;;-0.60;99.90;;;;;;5035218;28;20224;-69
2024/01/29 07:14:53;;;;;;;14.10;11.32;;;-0.70;99.90;;;;;;5045245;28;20246;-70
2024/01/29 07:17:39;;;;;;;11.73;9.48;;;-0.60;99.90;;;;;;5041576;28;20212;-69
2024/01/29 07:20:27;;;;;;;17.30;11.70;;;-0.50;99.90;;;;;;5040312;28;20260;-69
2024/01/29 07:23:14;;;;;;;14.55;9.65;;;-0.50;99.90;;;;;;5041510;28;20203;-71
2024/01/29 07:26:00;;;;;;;12.25;10.35;;;-0.40;99.90;;;;;;5038386;28;20727;-69
2024/01/29 07:28:46;;;;;;;14.13;10.70;;;-0.40;99.90;;;;;;5034022;28;20202;-71
2024/01/29 07:31:31;;;;;;;14.98;11.18;;;-0.40;99.90;;;;;;5034529;28;20229;-69
2024/01/29 07:34:17;;;;;;;15.85;11.00;;;-0.40;99.90;;;;;;5044685;28;20251;-69
2024/01/29 07:37:03;;;;;;;13.20;10.65;;;-0.40;99.90;;;;;;5041063;28;20686;-70
2024/01/29 07:39:51;;;;;;;14.52;11.80;;;-0.40;99.90;;;;;;5036063;28;20201;-69
2024/01/29 07:42:37;;;;;;;15.77;11.73;;;-0.40;99.90;;;;;;5046137;28;20273;-69
2024/01/29 07:45:24;;;;;;;16.67;10.77;;;-0.40;99.90;;;;;;5042110;28;20296;-69
2024/01/29 07:48:09;;;;;;;19.08;12.90;;;-0.50;99.90;;;;;;5042469;28;20201;-69
2024/01/29 07:50:56;;;;;;;18.45;14.15;;;-0.40;99.90;;;;;;5040484;28;20197;-69
2024/01/29 07:53:42;;;;;;;17.25;12.40;;;-0.30;99.90;;;;;;5039883;28;20303;-70
2024/01/29 07:56:29;;;;;;;14.73;11.98;;;-0.30;99.90;;;;;;5040944;28;20206;-69
2024/01/29 07:59:14;;;;;;;11.57;9.90;;;-0.20;99.90;;;;;;5036437;28;20725;-69
2024/01/29 08:02:00;;;;;;;12.75;9.75;;;-0.10;99.90;;;;;;5043302;28;20605;-70
2024/01/29 08:04:46;;;;;;;17.92;11.02;;;0.00;99.90;;;;;;5040836;28;20228;-70
2024/01/29 08:07:31;;;;;;;14.68;10.52;;;0.00;99.90;;;;;;5047776;28;20209;-69
2024/01/29 08:10:17;;;;;;;17.30;12.25;;;0.00;99.90;;;;;;5045907;28;20624;-69
2024/01/29 08:13:04;;;;;;;19.20;12.80;;;0.00;99.90;;;;;;5044423;28;20582;-69
2024/01/29 08:15:50;;;;;;;15.55;12.18;;;0.20;99.90;;;;;;5038886;28;20349;-70
2024/01/29 08:18:36;;;;;;;20.38;13.00;;;0.10;99.90;;;;;;5045022;28;20315;-69
2024/01/29 08:21:22;;;;;;;19.92;13.82;;;0.20;99.90;;;;;;5044406;28;20220;-69
2024/01/29 08:24:08;;;;;;;20.35;13.70;;;0.20;99.90;;;;;;5037178;28;20249;-70
2024/01/29 08:26:53;;;;;;;20.35;14.07;;;0.30;99.90;;;;;;5041369;28;20231;-69
2024/01/29 08:29:40;;;;;;;20.35;14.07;;;0.20;99.90;;;;;;5039759;28;20225;-69
2024/01/29 08:32:27;;;;;;;20.77;13.95;;;0.30;99.90;;;;;;5042046;28;20283;-70
2024/01/29 08:35:13;;;;;;;24.10;14.82;;;0.30;99.90;;;;;;5037960;28;20240;-70
2024/01/29 08:37:59;;;;;;;30.77;18.90;;;0.40;99.90;;;;;;5033759;28;20280;-69
2024/01/29 08:40:44;;;;;;;25.58;16.15;;;0.40;99.90;;;;;;5033008;28;20224;-69
2024/01/29 08:43:29;;;;;;;28.80;18.80;;;0.50;99.90;;;;;;5033130;28;20204;-69
2024/01/29 08:46:16;;;;;;;42.80;21.67;;;0.50;99.90;;;;;;5032997;28;20301;-69
2024/01/29 08:49:02;;;;;;;39.10;23.98;;;0.70;99.90;;;;;;5039050;28;20248;-69
2024/01/29 08:51:47;;;;;;;38.45;21.88;;;0.80;99.90;;;;;;5032851;28;20263;-69
2024/01/29 08:54:34;;;;;;;30.85;19.42;;;0.80;99.90;;;;;;5033810;28;20721;-69
2024/01/29 08:57:19;;;;;;;32.35;20.58;;;0.80;99.90;;;;;;5032779;28;20208;-69
2024/01/29 09:00:07;;;;;;;28.75;19.85;;;0.80;99.90;;;;;;5036667;28;20292;-69
2024/01/29 09:02:54;;;;;;;30.23;18.48;;;0.90;99.90;;;;;;5041707;28;20672;-70
2024/01/29 09:05:39;;;;;;;31.77;20.35;;;0.90;99.90;;;;;;5046148;28;20755;-69
2024/01/29 09:08:27;;;;;;;30.15;20.73;;;1.10;99.90;;;;;;5038145;28;20570;-70
2024/01/29 09:11:13;;;;;;;28.85;18.88;;;1.30;99.90;;;;;;5039469;28;20197;-70
2024/01/29 09:13:59;;;;;;;26.48;17.90;;;1.40;99.90;;;;;;5044735;28;20720;-69
2024/01/29 09:16:45;;;;;;;29.52;19.80;;;1.40;99.90;;;;;;5037209;28;20272;-69
2024/01/29 09:19:32;;;;;;;29.98;20.80;;;1.40;99.90;;;;;;5032424;28;20201;-69
2024/01/29 09:22:17;;;;;;;28.23;20.33;;;1.60;99.90;;;;;;5033655;28;20201;-69
2024/01/29 09:25:03;;;;;;;29.92;20.38;;;1.70;99.90;;;;;;5032282;28;20222;-69
2024/01/29 09:27:49;;;;;;;31.98;21.80;;;1.70;99.90;;;;;;5043591;28;20205;-70
2024/01/29 09:30:34;;;;;;;29.45;19.55;;;1.90;99.90;;;;;;5035415;28;20320;-69
2024/01/29 09:33:20;;;;;;;34.72;22.10;;;2.00;99.90;;;;;;5035336;28;20240;-69
2024/01/29 09:36:08;;;;;;;29.27;20.23;;;2.10;99.90;;;;;;5036802;28;20232;-70
2024/01/29 09:38:53;;;;;;;28.20;19.90;;;2.20;99.90;;;;;;5038102;28;20554;-70
2024/01/29 09:41:39;;;;;;;30.85;20.23;;;2.30;99.90;;;;;;5038476;28;20261;-69
2024/01/29 09:44:25;;;;;;;32.95;19.73;;;2.40;99.90;;;;;;5031816;28;20349;-69
2024/01/29 09:47:13;;;;;;;25.33;18.05;;;2.50;99.90;;;;;;5031721;28;20203;-70
2024/01/29 09:50:00;;;;;;;34.95;18.70;;;2.70;99.90;;;;;;5031626;28;20213;-70
2024/01/29 09:52:49;;;;;;;27.55;19.35;;;2.90;99.90;;;;;;5040616;28;20229;-70
2024/01/29 09:55:35;;;;;;;28.58;19.15;;;3.10;99.90;;;;;;5038071;28;20740;-69
2024/01/29 09:58:21;;;;;;;26.23;20.02;;;3.30;99.90;;;;;;5039790;28;20304;-69
2024/01/29 10:01:10;;;;;;;26.50;17.80;;;3.50;99.90;;;;;;5034842;28;20688;-70
2024/01/29 10:03:56;;;;;;;26.98;17.73;;;3.70;99.90;;;;;;5036496;28;20225;-70
2024/01/29 10:06:41;;;;;;;27.13;17.13;;;3.70;99.90;;;;;;5036953;28;20737;-69
2024/01/29 10:09:30;;;;;;;29.77;17.85;;;3.90;99.90;;;;;;5044059;28;20280;-69
2024/01/29 10:12:22;;;;;;;27.67;16.45;;;4.10;99.90;;;;;;5041265;28;20325;-70
2024/01/29 10:15:11;;;;;;;30.45;18.10;;;4.40;99.90;;;;;;5037836;28;20263;-70
2024/01/29 10:17:56;;;;;;;24.40;16.48;;;4.70;99.90;;;;;;5038585;28;20204;-70
2024/01/29 10:20:42;;;;;;;28.55;17.52;;;4.80;99.90;;;;;;5036209;28;20210;-70
2024/01/29 10:23:28;;;;;;;25.73;15.48;;;5.10;99.90;;;;;;5042688;28;20201;-70
2024/01/29 10:26:17;;;;;;;23.27;14.55;;;5.30;99.90;;;;;;5031275;28;20682;-70
2024/01/29 10:29:03;;;;;;;22.45;14.07;;;5.50;99.90;;;;;;5037384;28;20932;-69
2024/01/29 10:31:48;;;;;;;20.73;13.60;;;5.50;99.90;;;;;;5035715;28;20330;-70
2024/01/29 10:34:35;;;;;;;24.17;14.15;;;5.70;99.90;;;;;;5035426;28;20527;-70
2024/01/29 10:37:22;;;;;;;22.77;12.63;;;5.90;99.90;;;;;;5040932;28;20223;-70
2024/01/29 10:40:11;;;;;;;20.00;13.00;;;6.20;99.90;;;;;;5042997;28;20456;-69
2024/01/29 10:42:59;;;;;;;26.17;15.43;;;6.40;99.90;;;;;;5037498;28;20425;-70
2024/01/29 10:45:48;;;;;;;20.70;14.30;;;6.70;99.90;;;;;;5037080;28;20423;-70
2024/01/29 10:48:34;;;;;;;24.60;15.27;;;7.00;99.90;;;;;;5035276;28;20500;-70
2024/01/29 10:51:20;;;;;;;22.77;13.87;;;7.10;99.90;;;;;;5035377;28;20811;-70
2024/01/29 10:54:08;;;;;;;21.23;12.50;;;7.60;99.90;;;;;;5030621;28;20577;-70
2024/01/29 10:56:54;;;;;;;26.23;14.33;;;7.80;99.90;;;;;;5037493;28;20570;-70
2024/01/29 10:59:43;;;;;;;22.63;12.70;;;7.90;99.90;;;;;;5037271;28;20435;-70
2024/01/29 11:02:29;;;;;;;23.67;12.47;;;8.00;99.90;;;;;;5034880;28;20434;-70
2024/01/29 11:05:17;;;;;;;19.57;11.57;;;8.20;99.90;;;;;;5036686;28;20523;-70
2024/01/29 11:08:05;;;;;;;21.03;13.00;;;8.50;99.90;;;;;;5038634;28;20448;-70
2024/01/29 11:10:51;;;;;;;21.73;13.70;;;8.60;99.90;;;;;;5037517;28;20466;-70
2024/01/29 11:13:38;;;;;;;20.60;12.30;;;8.70;99.90;;;;;;5038993;28;20487;-70
2024/01/29 11:16:25;;;;;;;14.40;10.33;;;8.80;99.90;;;;;;5040410;28;20961;-70
2024/01/29 11:19:11;;;;;;;17.43;11.30;;;8.90;99.90;;;;;;5040239;28;20532;-69
2024/01/29 11:21:59;;;;;;;16.60;11.27;;;9.00;99.90;;;;;;5037520;28;20497;-70
2024/01/29 11:24:45;;;;;;;18.00;10.90;;;9.10;99.90;;;;;;5037244;28;21000;-70
2024/01/29 11:27:32;;;;;;;16.97;11.20;;;9.10;99.90;;;;;;5036400;28;20529;-71
2024/01/29 11:30:19;;;;;;;14.77;9.80;;;9.20;99.90;;;;;;5031016;28;20443;-70
2024/01/29 11:33:14;;;;;;;11.20;8.10;;;9.20;99.90;;;;;;5039109;28;20472;-70
2024/01/29 11:36:07;;;;;;;12.20;9.10;;;9.40;99.90;;;;;;5037891;28;20528;-70
2024/01/29 11:39:03;;;;;;;8.50;6.63;;;9.60;99.90;;;;;;5040839;28;20459;-69
2024/01/29 11:41:49;;;;;;;8.20;6.60;;;9.60;99.90;;;;;;5035024;28;20452;-70
2024/01/29 11:44:36;;;;;;;9.00;5.87;;;9.60;99.90;;;;;;5035739;28;20572;-70
2024/01/29 11:47:22;;;;;;;9.53;5.90;;;9.60;99.90;;;;;;5035227;28;21046;-69
2024/01/29 11:50:10;;;;;;;7.70;6.53;;;9.70;96.90;;;;;;5033916;28;20487;-70
2024/01/29 11:52:55;;;;;;;8.40;4.93;;;9.80;99.90;;;;;;5034535;28;20441;-70
2024/01/29 11:55:41;;;;;;;10.10;6.63;;;9.90;95.60;;;;;;5038763;28;20464;-70
2024/01/29 11:58:27;;;;;;;9.13;5.60;;;10.00;92.00;;;;;;5033727;28;20573;-70
2024/01/29 12:01:13;;;;;;;9.40;6.53;;;10.00;95.80;;;;;;5039588;28;20442;-70
2024/01/29 12:03:59;;;;;;;7.40;5.43;;;10.00;94.40;;;;;;5039532;28;20582;-70
2024/01/29 12:06:46;;;;;;;9.60;5.90;;;10.00;92.70;;;;;;5035631;28;20443;-70
2024/01/29 12:09:35;;;;;;;7.70;5.90;;;10.00;95.20;;;;;;5042491;28;20441;-70
2024/01/29 12:12:21;;;;;;;6.60;5.53;;;9.90;96.90;;;;;;5039543;28;20452;-70
2024/01/29 12:15:08;;;;;;;9.17;5.87;;;9.90;99.90;;;;;;5043124;28;20477;-70
2024/01/29 12:17:54;;;;;;;7.47;5.47;;;9.90;98.60;;;;;;5040434;28;20451;-70
2024/01/29 12:20:39;;;;;;;13.03;5.43;;;9.90;98.80;;;;;;5041961;28;20876;-70
2024/01/29 12:23:26;;;;;;;7.40;5.47;;;10.00;99.10;;;;;;5037439;28;20442;-70
2024/01/29 12:26:13;;;;;;;8.50;4.90;;;10.10;97.20;;;;;;5036899;28;20446;-70
2024/01/29 12:29:00;;;;;;;9.17;6.07;;;10.20;99.70;;;;;;5041957;28;20528;-70
2024/01/29 12:31:46;;;;;;;8.33;5.10;;;10.40;99.60;;;;;;5044265;28;21017;-69
2024/01/29 12:34:32;;;;;;;6.77;5.27;;;10.50;97.50;;;;;;5042074;28;21072;-69
2024/01/29 12:37:22;;;;;;;6.50;5.03;;;10.70;95.50;;;;;;5043110;28;20522;-70
2024/01/29 12:40:16;;;;;;;11.20;6.57;;;10.90;97.10;;;;;;5035937;28;20447;-70
2024/01/29 12:43:02;;;;;;;7.50;5.67;;;11.40;94.60;;;;;;5035724;28;20436;-70
2024/01/29 12:45:47;;;;;;;9.50;5.50;;;11.80;90.50;;;;;;5033148;28;20402;-70
2024/01/29 12:48:34;;;;;;;13.70;5.93;;;12.30;83.80;;;;;;5038808;28;20436;-70
2024/01/29 12:51:19;;;;;;;9.80;5.20;;;12.40;77.70;;;;;;5035197;28;20538;-70
2024/01/29 12:54:06;;;;;;;8.90;5.30;;;12.70;78.00;;;;;;5032749;28;20852;-70
2024/01/29 12:56:55;;;;;;;11.23;4.70;;;12.90;68.80;;;;;;5037954;28;20420;-69
2024/01/29 12:59:40;;;;;;;15.70;9.67;;;13.10;68.90;;;;;;5032722;28;20511;-70
2024/01/29 13:02:26;;;;;;;14.10;7.83;;;13.50;68.60;;;;;;5032962;28;20403;-70
2024/01/29 13:05:11;;;;;;;14.53;9.53;;;14.00;64.30;;;;;;5034322;28;20820;-70
2024/01/29 13:07:57;;;;;;;11.27;7.20;;;14.30;49.80;;;;;;5032944;28;20403;-70
2024/01/29 13:10:43;;;;;;;10.07;5.73;;;14.50;43.80;;;;;;5030142;28;20428;-70
2024/01/29 13:13:29;;;;;;;10.00;5.53;;;14.60;40.50;;;;;;5032086;28;20399;-70
2024/01/29 13:16:15;;;;;;;8.70;5.87;;;14.40;37.50;;;;;;5032435;28;20518;-70
2024/01/29 13:19:01;;;;;;;7.20;5.27;;;14.10;40.80;;;;;;5037508;28;20515;-70
2024/01/29 13:21:46;;;;;;;15.20;5.43;;;13.60;41.60;;;;;;5033776;28;20407;-69
2024/01/29 13:24:32;;;;;;;22.10;12.83;;;13.10;45.00;;;;;;5032266;28;20534;-70
2024/01/29 13:27:17;;;;;;;13.03;7.53;;;12.70;49.80;;;;;;5035360;28;20426;-70
2024/01/29 13:30:06;;;;;;;9.23;6.10;;;12.40;57.00;;;;;;5031365;28;20443;-69
2024/01/29 13:32:51;;;;;;;7.33;5.17;;;12.40;62.70;;;;;;5031959;28;20779;-69
2024/01/29 13:35:37;;;;;;;5.23;4.53;;;12.70;65.00;;;;;;5031792;28;20558;-69
2024/01/29 13:38:23;;;;;;;9.33;6.17;;;13.30;64.40;;;;;;5038812;28;20429;-69
2024/01/29 13:41:09;;;;;;;8.50;5.83;;;13.90;52.80;;;;;;5035052;28;20403;-69
2024/01/29 13:43:55;;;;;;;8.37;5.40;;;14.20;47.30;;;;;;5037023;28;20562;-70
2024/01/29 13:46:42;;;;;;;9.23;6.03;;;14.70;41.20;;;;;;5040416;28;20948;-68
2024/01/29 13:49:28;;;;;;;12.50;5.80;;;15.10;34.40;;;;;;5032951;28;20955;-69
2024/01/29 13:52:14;;;;;;;8.33;6.20;;;15.60;34.50;;;;;;5034426;28;20423;-68
2024/01/29 13:54:59;;;;;;;9.20;6.33;;;15.50;30.90;;;;;;5032912;28;20462;-68
2024/01/29 13:57:45;;;;;;;10.17;5.90;;;15.00;31.00;;;;;;5031559;28;20429;-71
2024/01/29 14:00:31;;;;;;;12.17;6.57;;;14.60;35.50;;;;;;5031693;28;20475;-68
2024/01/29 14:03:18;;;;;;;8.10;5.20;;;14.10;39.30;;;;;;5031611;28;20960;-68
2024/01/29 14:06:04;;;;;;;8.67;5.40;;;13.70;46.60;;;;;;5043504;28;20448;-71
2024/01/29 14:08:50;;;;;;;9.30;5.63;;;13.50;47.80;;;;;;5040379;28;20423;-69